createdAt,value
2023-09-02T00:01:39.114Z,13.50
2023-09-02T00:04:06.639Z,13.50
2023-09-02T00:06:34.119Z,13.40
2023-09-02T00:09:01.754Z,13.40
2023-09-02T00:11:29.078Z,13.40
2023-09-02T00:13:56.664Z,13.40
2023-09-02T00:16:25.530Z,13.50
2023-09-02T00:18:53.405Z,13.50
2023-09-02T00:21:20.733Z,13.40
2023-09-02T00:23:48.242Z,13.40
2023-09-02T00:26:16.536Z,13.50
2023-09-02T00:28:48.206Z,13.50
2023-09-02T00:31:15.759Z,13.50
2023-09-02T00:33:43.336Z,13.60
2023-09-02T00:36:10.715Z,13.50
2023-09-02T00:38:38.201Z,13.60
2023-09-02T00:41:09.162Z,13.60
2023-09-02T00:43:37.411Z,13.60
2023-09-02T00:46:06.534Z,13.60
2023-09-02T00:48:35.079Z,13.50
2023-09-02T00:51:02.431Z,13.40
2023-09-02T00:53:30.216Z,13.40
2023-09-02T00:55:57.627Z,13.40
2023-09-02T00:58:25.170Z,13.50
2023-09-02T01:00:52.708Z,13.50
2023-09-02T01:03:20.682Z,13.50
2023-09-02T01:05:48.404Z,13.50
2023-09-02T01:08:20.527Z,13.50
2023-09-02T01:10:49.452Z,13.60
2023-09-02T01:13:17.295Z,13.60
2023-09-02T01:15:45.098Z,13.60
2023-09-02T01:18:13.235Z,13.50
2023-09-02T01:21:11.609Z,13.40
2023-09-02T01:24:06.199Z,13.50
2023-09-02T01:27:03.886Z,13.50
2023-09-02T01:29:35.953Z,13.50
2023-09-02T01:32:07.563Z,13.40
2023-09-02T01:34:37.598Z,13.50
2023-09-02T01:37:09.483Z,13.40
2023-09-02T01:39:39.165Z,13.40
2023-09-02T01:42:09.969Z,13.40
2023-09-02T01:44:38.734Z,13.30
2023-09-02T01:47:07.187Z,13.30
2023-09-02T01:49:35.893Z,13.30
2023-09-02T01:52:04.751Z,13.40
2023-09-02T01:54:33.019Z,13.30
2023-09-02T01:57:00.784Z,13.20
2023-09-02T01:59:28.455Z,13.30
2023-09-02T02:01:56.200Z,13.30
2023-09-02T02:04:34.474Z,13.30
2023-09-02T02:07:06.345Z,13.30
2023-09-02T02:09:47.504Z,13.30
2023-09-02T02:12:15.869Z,13.30
2023-09-02T02:14:43.415Z,13.30
2023-09-02T02:17:11.034Z,13.30
2023-09-02T02:19:39.458Z,13.40
2023-09-02T02:22:07.345Z,13.30
2023-09-02T02:24:34.786Z,13.20
2023-09-02T02:27:03.465Z,13.30
2023-09-02T02:29:30.992Z,13.40
2023-09-02T02:31:59.013Z,13.30
2023-09-02T02:34:26.545Z,13.30
2023-09-02T02:36:54.133Z,13.30
2023-09-02T02:39:22.072Z,13.40
2023-09-02T02:41:49.555Z,13.40
2023-09-02T02:44:17.020Z,13.40
2023-09-02T02:46:44.637Z,13.40
2023-09-02T02:49:13.093Z,13.40
2023-09-02T02:51:40.697Z,13.50
2023-09-02T02:54:08.357Z,13.40
2023-09-02T02:56:35.876Z,13.40
2023-09-02T02:59:04.433Z,13.30
2023-09-02T03:01:32.744Z,13.30
2023-09-02T03:04:01.677Z,13.30
2023-09-02T03:06:29.601Z,13.30
2023-09-02T03:08:57.047Z,13.40
2023-09-02T03:11:24.893Z,13.30
2023-09-02T03:13:53.718Z,13.30
2023-09-02T03:16:25.532Z,13.20
2023-09-02T03:18:54.366Z,13.30
2023-09-02T03:21:21.834Z,13.40
2023-09-02T03:23:49.728Z,13.30
2023-09-02T03:26:17.687Z,13.40
2023-09-02T03:28:47.770Z,13.40
2023-09-02T03:31:15.340Z,13.30
2023-09-02T03:33:44.617Z,13.40
2023-09-02T03:36:21.444Z,13.40
2023-09-02T03:38:49.152Z,13.40
2023-09-02T03:41:19.650Z,13.50
2023-09-02T03:43:47.740Z,13.40
2023-09-02T03:46:16.561Z,13.40
2023-09-02T03:48:47.736Z,13.30
2023-09-02T03:51:17.880Z,13.40
2023-09-02T03:54:06.211Z,13.30
2023-09-02T03:56:38.114Z,13.40
2023-09-02T03:59:06.763Z,13.40
2023-09-02T04:01:34.313Z,13.40
2023-09-02T04:04:02.756Z,13.40
2023-09-02T04:06:30.173Z,13.40
2023-09-02T04:08:57.732Z,13.50
2023-09-02T04:11:25.363Z,13.50
2023-09-02T04:13:52.735Z,13.50
2023-09-02T04:16:20.168Z,13.40
2023-09-02T04:18:47.886Z,13.40
2023-09-02T04:21:15.539Z,13.40
2023-09-02T04:23:45.274Z,13.50
2023-09-02T04:26:16.287Z,13.40
2023-09-02T04:28:44.250Z,13.50
2023-09-02T04:31:15.070Z,13.50
2023-09-02T04:33:42.956Z,13.50
2023-09-02T04:36:10.637Z,13.50
2023-09-02T04:38:41.356Z,13.50
2023-09-02T04:41:09.591Z,13.50
2023-09-02T04:43:38.982Z,13.50
2023-09-02T04:46:09.184Z,13.50
2023-09-02T04:48:39.598Z,13.50
2023-09-02T04:51:09.724Z,13.50
2023-09-02T04:53:38.685Z,13.60
2023-09-02T04:56:07.223Z,13.50
2023-09-02T04:58:37.417Z,13.50
2023-09-02T05:01:14.660Z,13.50
2023-09-02T05:03:49.898Z,13.50
2023-09-02T05:06:17.488Z,13.60
2023-09-02T05:08:47.284Z,13.50
2023-09-02T05:11:18.748Z,13.50
2023-09-02T05:13:46.463Z,13.50
2023-09-02T05:16:14.332Z,13.50
2023-09-02T05:18:42.176Z,13.60
2023-09-02T05:21:09.844Z,13.50
2023-09-02T05:23:37.415Z,13.50
2023-09-02T05:26:09.047Z,13.50
2023-09-02T05:28:37.910Z,13.60
2023-09-02T05:31:05.736Z,13.50
2023-09-02T05:33:33.441Z,13.50
2023-09-02T05:36:00.865Z,13.60
2023-09-02T05:38:28.698Z,13.60
2023-09-02T05:40:56.487Z,13.60
2023-09-02T05:43:26.127Z,13.50
2023-09-02T05:45:53.840Z,13.60
2023-09-02T05:48:21.411Z,13.60
2023-09-02T05:50:49.180Z,13.60
2023-09-02T05:53:16.953Z,13.60
2023-09-02T05:55:54.796Z,13.60
2023-09-02T05:58:25.094Z,13.60
2023-09-02T06:00:52.856Z,13.60
2023-09-02T06:03:20.902Z,13.70
2023-09-02T06:05:48.699Z,13.60
2023-09-02T06:08:16.795Z,13.60
2023-09-02T06:10:44.472Z,13.60
2023-09-02T06:13:11.933Z,13.60
2023-09-02T06:15:42.541Z,13.60
2023-09-02T06:18:10.100Z,13.60
2023-09-02T06:20:37.508Z,13.60
2023-09-02T06:23:06.084Z,13.60
2023-09-02T06:25:34.456Z,13.60
2023-09-02T06:28:01.864Z,13.60
2023-09-02T06:30:29.330Z,13.60
2023-09-02T06:32:56.790Z,13.60
2023-09-02T06:35:24.333Z,13.60
2023-09-02T06:37:51.836Z,13.60
2023-09-02T06:40:19.452Z,13.60
2023-09-02T06:42:46.827Z,13.70
2023-09-02T06:45:14.345Z,13.70
2023-09-02T06:47:42.032Z,13.60
2023-09-02T06:50:09.814Z,13.60
2023-09-02T06:52:37.406Z,13.60
2023-09-02T06:55:05.464Z,13.60
2023-09-02T06:57:32.943Z,13.60
2023-09-02T07:00:00.461Z,13.60
2023-09-02T07:02:27.846Z,13.60
2023-09-02T07:04:55.372Z,13.60
2023-09-02T07:07:22.937Z,13.60
2023-09-02T07:09:50.402Z,13.60
2023-09-02T07:12:17.929Z,13.60
2023-09-02T07:14:45.417Z,13.70
2023-09-02T07:17:12.886Z,13.70
2023-09-02T07:19:40.375Z,13.70
2023-09-02T07:22:07.894Z,13.80
2023-09-02T07:24:35.360Z,13.80
2023-09-02T07:27:02.799Z,13.80
2023-09-02T07:29:30.644Z,13.80
2023-09-02T07:31:58.143Z,13.80
2023-09-02T07:34:25.661Z,13.90
2023-09-02T07:36:53.121Z,13.90
2023-09-02T07:39:20.797Z,13.90
2023-09-02T07:41:50.260Z,13.90
2023-09-02T07:44:17.684Z,14.00
2023-09-02T07:46:45.092Z,14.00
2023-09-02T07:49:13.217Z,14.00
2023-09-02T07:51:41.752Z,14.00
2023-09-02T07:54:09.505Z,14.00
2023-09-02T07:56:38.685Z,14.10
2023-09-02T07:59:07.545Z,14.10
2023-09-02T08:01:35.916Z,14.10
2023-09-02T08:04:06.328Z,14.10
2023-09-02T08:06:34.218Z,14.10
2023-09-02T08:09:01.946Z,14.20
2023-09-02T08:11:29.515Z,14.20
2023-09-02T08:13:56.927Z,14.30
2023-09-02T08:16:25.230Z,14.30
2023-09-02T08:18:53.942Z,14.30
2023-09-02T08:21:22.990Z,14.30
2023-09-02T08:23:50.978Z,14.30
2023-09-02T08:26:18.418Z,14.40
2023-09-02T08:28:46.276Z,14.40
2023-09-02T08:31:19.695Z,14.50
2023-09-02T08:33:47.383Z,14.50
2023-09-02T08:36:18.741Z,14.60
2023-09-02T08:38:47.365Z,14.60
2023-09-02T08:41:27.933Z,14.70
2023-09-02T08:43:59.511Z,14.70
2023-09-02T08:46:29.142Z,14.70
2023-09-02T08:48:58.090Z,14.70
2023-09-02T08:51:29.515Z,14.70
2023-09-02T08:53:58.524Z,14.70
2023-09-02T08:56:27.097Z,14.80
2023-09-02T08:58:55.726Z,14.80
2023-09-02T09:01:25.367Z,14.80
2023-09-02T09:03:57.661Z,14.80
2023-09-02T09:06:26.456Z,14.80
2023-09-02T09:08:55.772Z,14.80
2023-09-02T09:11:24.603Z,14.80
2023-09-02T09:13:54.849Z,14.80
2023-09-02T09:16:26.158Z,14.90
2023-09-02T09:18:54.060Z,14.90
2023-09-02T09:21:21.500Z,15.00
2023-09-02T09:23:49.264Z,15.00
2023-09-02T09:26:19.788Z,15.10
2023-09-02T09:28:54.774Z,15.30
2023-09-02T09:31:22.925Z,15.60
2023-09-02T09:33:51.201Z,15.80
2023-09-02T09:36:24.015Z,15.80
2023-09-02T09:38:55.465Z,15.90
2023-09-02T09:41:24.918Z,15.80
2023-09-02T09:44:18.683Z,15.70
2023-09-02T09:46:51.512Z,15.60
2023-09-02T09:49:30.486Z,15.50
2023-09-02T09:52:04.724Z,15.40
2023-09-02T09:54:43.543Z,15.40
2023-09-02T09:57:16.094Z,15.40
2023-09-02T09:59:54.204Z,15.40
2023-09-02T10:02:23.394Z,15.40
2023-09-02T10:04:55.521Z,15.50
2023-09-02T10:07:28.052Z,15.60
2023-09-02T10:09:57.713Z,15.70
2023-09-02T10:12:25.314Z,15.70
2023-09-02T10:14:53.052Z,15.70
2023-09-02T10:17:21.245Z,15.70
2023-09-02T10:19:48.848Z,15.70
2023-09-02T10:22:20.525Z,15.70
2023-09-02T10:24:59.704Z,15.70
2023-09-02T10:27:33.117Z,15.60
2023-09-02T10:30:03.410Z,15.60
2023-09-02T10:32:50.385Z,15.50
2023-09-02T10:35:23.555Z,15.50
2023-09-02T10:37:59.124Z,15.40
2023-09-02T10:40:29.332Z,15.50
2023-09-02T10:42:57.062Z,15.40
2023-09-02T10:45:24.592Z,15.40
2023-09-02T10:47:52.377Z,15.30
2023-09-02T10:50:23.308Z,15.40
2023-09-02T10:53:12.179Z,15.40
2023-09-02T10:56:02.160Z,15.40
2023-09-02T10:58:48.483Z,15.40
2023-09-02T11:01:16.315Z,15.40
2023-09-02T11:03:48.845Z,15.40
2023-09-02T11:06:18.040Z,15.70
2023-09-02T11:08:53.860Z,16.10
2023-09-02T11:11:22.353Z,16.30
2023-09-02T11:14:08.453Z,16.50
2023-09-02T11:16:37.009Z,16.60
2023-09-02T11:19:10.168Z,16.50
2023-09-02T11:21:47.701Z,16.30
2023-09-02T11:24:19.314Z,16.30
2023-09-02T11:26:59.656Z,16.20
2023-09-02T11:29:29.436Z,16.20
2023-09-02T11:34:51.051Z,16.50
2023-09-02T11:37:32.223Z,16.80
2023-09-02T11:40:16.471Z,17.10
2023-09-02T11:43:00.753Z,17.20
2023-09-02T11:45:39.660Z,17.10
2023-09-02T11:48:08.328Z,16.90
2023-09-02T11:50:39.682Z,16.70
2023-09-02T11:53:07.862Z,16.60
2023-09-02T11:55:37.703Z,16.50
2023-09-02T11:58:11.947Z,16.40
2023-09-02T12:00:46.431Z,16.30
2023-09-02T12:03:31.069Z,16.30
2023-09-02T12:06:00.822Z,16.20
2023-09-02T12:08:32.688Z,16.10
2023-09-02T12:11:07.359Z,16.10
2023-09-02T12:13:35.123Z,16.20
2023-09-02T12:16:03.476Z,16.50
2023-09-02T12:18:31.400Z,16.50
2023-09-02T12:20:59.498Z,16.70
2023-09-02T12:23:27.234Z,16.70
2023-09-02T12:26:11.362Z,16.90
2023-09-02T12:28:48.504Z,17.20
2023-09-02T12:31:18.760Z,17.50
2023-09-02T12:33:52.625Z,17.50
2023-09-02T12:36:23.067Z,17.30
2023-09-02T12:38:54.620Z,17.30
2023-09-02T12:41:24.780Z,17.20
2023-09-02T12:43:53.319Z,17.00
2023-09-02T12:46:24.879Z,16.80
2023-09-02T12:48:55.943Z,16.70
2023-09-02T12:51:34.297Z,16.70
2023-09-02T12:54:12.342Z,16.80
2023-09-02T12:56:42.859Z,16.70
2023-09-02T12:59:10.725Z,16.60
2023-09-02T13:01:40.900Z,16.60
2023-09-02T13:04:08.548Z,16.90
2023-09-02T13:06:36.241Z,17.40
2023-09-02T13:09:03.992Z,17.60
2023-09-02T13:11:31.487Z,17.80
2023-09-02T13:13:59.074Z,17.90
2023-09-02T13:16:26.735Z,18.20
2023-09-02T13:18:54.617Z,18.40
2023-09-02T13:21:22.197Z,18.60
2023-09-02T13:23:50.453Z,18.60
2023-09-02T13:26:21.258Z,18.30
2023-09-02T13:28:48.910Z,17.90
2023-09-02T13:31:17.231Z,17.50
2023-09-02T13:33:44.739Z,17.40
2023-09-02T13:36:13.997Z,17.40
2023-09-02T13:38:41.991Z,17.30
2023-09-02T13:41:11.326Z,17.40
2023-09-02T13:43:40.705Z,17.40
2023-09-02T13:46:11.175Z,17.40
2023-09-02T13:48:39.874Z,17.40
2023-09-02T13:51:10.489Z,17.40
2023-09-02T13:53:40.031Z,17.70
2023-09-02T13:56:07.783Z,17.80
2023-09-02T13:58:36.801Z,17.70
2023-09-02T14:01:05.029Z,17.50
2023-09-02T14:03:33.759Z,17.40
2023-09-02T14:06:04.776Z,17.40
2023-09-02T14:08:37.919Z,17.30
2023-09-02T14:11:06.407Z,17.20
2023-09-02T14:13:39.436Z,17.20
2023-09-02T14:16:08.018Z,17.20
2023-09-02T14:18:36.030Z,17.10
2023-09-02T14:21:03.718Z,17.10
2023-09-02T14:23:33.731Z,17.00
2023-09-02T14:26:02.788Z,16.90
2023-09-02T14:28:32.255Z,16.90
2023-09-02T14:31:00.131Z,16.80
2023-09-02T14:33:27.752Z,16.80
2023-09-02T14:35:55.247Z,16.70
2023-09-02T14:38:22.723Z,16.70
2023-09-02T14:40:50.567Z,16.70
2023-09-02T14:43:18.493Z,16.60
2023-09-02T14:45:46.461Z,16.60
2023-09-02T14:48:14.247Z,16.60
2023-09-02T14:50:42.582Z,16.50
2023-09-02T14:53:10.272Z,16.50
2023-09-02T14:55:38.958Z,16.40
2023-09-02T14:58:06.460Z,16.30
2023-09-02T15:00:35.081Z,16.30
2023-09-02T15:03:07.143Z,16.30
2023-09-02T15:05:37.243Z,16.60
2023-09-02T15:08:07.475Z,17.00
2023-09-02T15:10:37.098Z,17.20
2023-09-02T15:13:05.317Z,17.40
2023-09-02T15:15:42.324Z,17.50
2023-09-02T15:18:30.829Z,17.70
2023-09-02T15:21:02.638Z,17.80
2023-09-02T15:23:36.627Z,18.00
2023-09-02T15:26:06.493Z,18.20
2023-09-02T15:28:33.936Z,18.10
2023-09-02T15:31:05.144Z,17.80
2023-09-02T15:33:34.291Z,17.70
2023-09-02T15:36:06.506Z,17.50
2023-09-02T15:38:35.782Z,17.40
2023-09-02T15:41:03.682Z,17.30
2023-09-02T15:43:37.354Z,17.20
2023-09-02T15:46:10.586Z,17.20
2023-09-02T15:48:38.386Z,17.10
2023-09-02T15:51:08.729Z,17.20
2023-09-02T15:53:36.646Z,17.20
2023-09-02T15:56:04.369Z,17.10
2023-09-02T15:58:31.840Z,17.10
2023-09-02T16:01:02.711Z,17.10
2023-09-02T16:03:34.768Z,17.00
2023-09-02T16:06:02.672Z,17.00
2023-09-02T16:08:30.019Z,17.00
2023-09-02T16:10:57.738Z,17.00
2023-09-02T16:13:25.402Z,17.00
2023-09-02T16:15:54.860Z,16.90
2023-09-02T16:18:22.613Z,16.90
2023-09-02T16:20:57.057Z,16.80
2023-09-02T16:23:30.061Z,16.80
2023-09-02T16:25:59.469Z,16.80
2023-09-02T16:28:26.925Z,16.80
2023-09-02T16:30:55.712Z,16.70
2023-09-02T16:33:23.283Z,16.60
2023-09-02T16:35:50.995Z,16.50
2023-09-02T16:38:21.159Z,16.50
2023-09-02T16:40:49.029Z,16.50
2023-09-02T16:43:18.212Z,16.50
2023-09-02T16:45:47.142Z,16.50
2023-09-02T16:48:15.260Z,16.50
2023-09-02T16:50:46.737Z,16.50
2023-09-02T16:53:19.600Z,16.40
2023-09-02T16:56:04.283Z,16.40
2023-09-02T16:58:35.525Z,16.40
2023-09-02T17:01:08.940Z,16.40
2023-09-02T17:03:37.400Z,16.30
2023-09-02T17:06:08.322Z,16.30
2023-09-02T17:08:36.663Z,16.20
2023-09-02T17:11:04.192Z,15.80
2023-09-02T17:13:32.182Z,15.70
2023-09-02T17:15:59.607Z,15.70
2023-09-02T17:18:27.413Z,15.70
2023-09-02T17:20:54.845Z,15.60
2023-09-02T17:23:23.140Z,15.50
2023-09-02T17:25:50.966Z,15.70
2023-09-02T17:28:28.166Z,15.50
2023-09-02T17:31:04.419Z,15.40
2023-09-02T17:33:34.434Z,15.40
2023-09-02T17:36:02.300Z,15.50
2023-09-02T17:38:29.816Z,15.50
2023-09-02T17:40:57.260Z,15.50
2023-09-02T17:43:24.697Z,15.50
2023-09-02T17:45:52.446Z,15.30
2023-09-02T17:48:22.647Z,15.40
2023-09-02T17:50:56.440Z,15.40
2023-09-02T17:53:25.188Z,15.40
2023-09-02T17:55:52.683Z,15.40
2023-09-02T17:58:20.605Z,15.30
2023-09-02T18:00:50.408Z,15.30
2023-09-02T18:03:21.477Z,15.10
2023-09-02T18:05:51.423Z,15.00
2023-09-02T18:08:19.177Z,15.10
2023-09-02T18:10:47.242Z,15.00
2023-09-02T18:13:14.985Z,14.90
2023-09-02T18:15:42.616Z,14.90
2023-09-02T18:18:10.236Z,15.00
2023-09-02T18:20:37.821Z,15.10
2023-09-02T18:23:05.583Z,15.00
2023-09-02T18:25:33.185Z,15.10
2023-09-02T18:28:02.305Z,14.90
2023-09-02T18:30:31.103Z,14.80
2023-09-02T18:32:59.208Z,14.90
2023-09-02T18:35:27.573Z,15.00
2023-09-02T18:37:55.164Z,14.90
2023-09-02T18:40:22.885Z,14.90
2023-09-02T18:42:50.259Z,14.90
2023-09-02T18:45:18.722Z,14.90
2023-09-02T18:47:49.011Z,14.90
2023-09-02T18:50:18.698Z,14.90
2023-09-02T18:52:46.873Z,14.90
2023-09-02T18:55:14.626Z,14.80
2023-09-02T18:57:42.173Z,14.80
2023-09-02T19:00:10.185Z,14.80
2023-09-02T19:02:37.829Z,14.60
2023-09-02T19:05:05.862Z,14.40
2023-09-02T19:07:33.725Z,14.40
2023-09-02T19:10:01.961Z,14.50
2023-09-02T19:12:29.437Z,14.50
2023-09-02T19:15:04.675Z,14.40
2023-09-02T19:17:37.914Z,14.30
2023-09-02T19:20:08.418Z,14.30
2023-09-02T19:22:42.208Z,14.30
2023-09-02T19:25:15.981Z,14.30
2023-09-02T19:27:45.985Z,14.40
2023-09-02T19:30:14.919Z,14.40
2023-09-02T19:32:44.311Z,14.40
2023-09-02T19:35:12.306Z,14.50
2023-09-02T19:37:51.881Z,14.40
2023-09-02T19:40:23.533Z,14.30
2023-09-02T19:42:52.401Z,14.20
2023-09-02T19:45:21.954Z,14.30
2023-09-02T19:47:55.662Z,14.30
2023-09-02T19:50:23.404Z,14.20
2023-09-02T19:52:50.887Z,14.30
2023-09-02T19:55:19.656Z,14.40
2023-09-02T19:57:47.042Z,14.40
2023-09-02T20:00:16.362Z,14.30
2023-09-02T20:02:44.071Z,14.20
2023-09-02T20:05:11.650Z,14.20
2023-09-02T20:07:39.176Z,14.10
2023-09-02T20:10:07.254Z,14.00
2023-09-02T20:12:35.251Z,14.10
2023-09-02T20:15:02.820Z,14.00
2023-09-02T20:17:32.003Z,13.80
2023-09-02T20:19:59.506Z,13.80
2023-09-02T20:22:27.566Z,14.00
2023-09-02T20:24:55.555Z,14.10
2023-09-02T20:27:25.105Z,14.20
2023-09-02T20:29:53.531Z,14.00
2023-09-02T20:32:21.186Z,13.80
2023-09-02T20:34:48.713Z,13.70
2023-09-02T20:37:16.173Z,13.60
2023-09-02T20:39:43.760Z,13.60
2023-09-02T20:42:11.195Z,13.60
2023-09-02T20:44:38.745Z,13.60
2023-09-02T20:47:06.280Z,13.70
2023-09-02T20:49:33.781Z,13.60
2023-09-02T20:52:02.979Z,13.60
2023-09-02T20:54:31.449Z,13.60
2023-09-02T20:56:58.918Z,13.60
2023-09-02T20:59:26.486Z,13.70
2023-09-02T21:01:53.986Z,13.60
2023-09-02T21:04:21.509Z,13.70
2023-09-02T21:06:49.031Z,13.60
2023-09-02T21:09:16.597Z,13.60
2023-09-02T21:11:44.514Z,13.60
2023-09-02T21:14:12.077Z,13.60
2023-09-02T21:16:39.687Z,13.60
2023-09-02T21:19:07.224Z,13.50
2023-09-02T21:21:35.009Z,13.30
2023-09-02T21:24:05.866Z,13.30
2023-09-02T21:26:33.435Z,13.40
2023-09-02T21:29:00.860Z,13.40
2023-09-02T21:31:28.450Z,13.40
2023-09-02T21:33:56.537Z,13.30
2023-09-02T21:36:24.074Z,13.30
2023-09-02T21:38:51.687Z,13.20
2023-09-02T21:41:19.179Z,13.10
2023-09-02T21:43:46.835Z,13.20
2023-09-02T21:46:15.361Z,13.20
2023-09-02T21:48:42.906Z,13.30
2023-09-02T21:51:13.466Z,13.40
2023-09-02T21:53:43.422Z,13.20
2023-09-02T21:56:11.740Z,13.20
2023-09-02T21:58:40.126Z,13.30
2023-09-02T22:01:12.643Z,13.30
2023-09-02T22:03:40.793Z,13.50
2023-09-02T22:06:10.858Z,13.40
2023-09-02T22:08:40.278Z,13.30
2023-09-02T22:11:08.296Z,13.10
2023-09-02T22:13:36.465Z,13.00
2023-09-02T22:16:04.732Z,13.20
2023-09-02T22:18:32.214Z,13.20
2023-09-02T22:21:00.945Z,13.20
2023-09-02T22:23:33.098Z,13.20
2023-09-02T22:26:04.367Z,13.20
2023-09-02T22:28:36.078Z,13.10
2023-09-02T22:31:06.253Z,13.20
2023-09-02T22:33:35.410Z,13.20
2023-09-02T22:36:03.658Z,13.00
2023-09-02T22:38:55.773Z,13.00
2023-09-02T22:41:24.306Z,13.00
2023-09-02T22:43:51.675Z,13.00
2023-09-02T22:46:19.248Z,13.00
2023-09-02T22:48:46.738Z,13.10
2023-09-02T22:51:16.593Z,13.30
2023-09-02T22:53:44.094Z,13.00
2023-09-02T22:56:16.145Z,12.90
2023-09-02T22:58:43.686Z,12.90
2023-09-02T23:01:13.158Z,12.80
2023-09-02T23:03:44.072Z,12.70
2023-09-02T23:06:12.960Z,12.60
2023-09-02T23:08:41.533Z,12.60
2023-09-02T23:11:09.163Z,12.60
2023-09-02T23:13:36.619Z,12.60
2023-09-02T23:16:05.201Z,12.70
2023-09-02T23:18:33.463Z,12.70
2023-09-02T23:21:12.692Z,12.60
2023-09-02T23:23:41.105Z,12.60
2023-09-02T23:26:08.872Z,12.50
2023-09-02T23:28:37.577Z,12.50
2023-09-02T23:31:05.392Z,12.50
2023-09-02T23:33:36.149Z,12.50
2023-09-02T23:36:04.474Z,12.50
2023-09-02T23:38:32.494Z,12.40
2023-09-02T23:41:00.615Z,12.30
2023-09-02T23:43:28.250Z,12.40
2023-09-02T23:45:55.849Z,12.50
2023-09-02T23:48:23.406Z,12.40
2023-09-02T23:50:51.723Z,12.40
2023-09-02T23:53:19.331Z,12.40
2023-09-02T23:55:48.507Z,12.40
2023-09-02T23:58:16.547Z,12.40
